Horn, Austria
Current Conditions -  °F | °C
As of 5:50 PM on Thursday 30 Oct 2014 (Local Time) from LOXT Reporting Station
Broken Clouds Broken Clouds  
Wind Chill: 45°   Ceiling: 4100
Heat Index: 45°   Visibility: 4mi
Dew Point: 41°   Wind: 2mph
Humidity: 87%   Direction: 250°WSW
Pressure: 30.3"   Gusts: NA
Location:  48.67°N, 15.65°E
Report Text: LOXT 301650Z 25002KT 7000 BKN041SC 07/05 Q1026 RMK BKN
Loading
Personal Weather Stations






























Interactive Weather Map
Tropical Storm Tracking
New forecast layout! Learn more

10-Day Weather Forecast

Advertisements
Track Severe Weather on mobile